Notice: Undefined index: name in /home/huttweat/public_html/pwsWD/metar_load_funct.php on line 61

Notice: Undefined index: humidity_percent in /home/huttweat/public_html/pwsWD/metar_load_funct.php on line 103
Weather34 Metar Aviation Weather Data Popup
8°C Temp
'.PHP_EOL;
6°C Dewpoint
% Humidity
Temperature
11 KM/H
7 MPH
6 KTS
10°
Due North

Wind
Partly Cloudy
Pressure 1035.92 (hPa)- 30.59 (in)
Visibility 6.2 (mi) - 10 (km)

Current Conditions
NZWN
Location 8(km)
Metar:
NZWN 262130Z AUTO 01006KT 9999 FEW027/// 08/06 Q1036 NOSIG

Notice: Undefined offset: 1 in /home/huttweat/public_html/pwsWD/metar_popup.php on line 285

Notice: Undefined offset: 1 in /home/huttweat/public_html/pwsWD/metar_popup.php on line 287

Warning: gmmktime() expects parameter 1 to be integer, string given in /home/huttweat/public_html/pwsWD/metar_popup.php on line 288
Thu 1st January 12:00 pm

Airport
  Metar Aviation API Data Provided by https://www.checkwx.com/